createdAt,value
2018-11-29T05:00:55.808Z,93.18
2018-11-29T05:01:55.682Z,93.13
2018-11-29T05:03:48.342Z,93.27
2018-11-29T05:04:48.231Z,92.79
2018-11-29T05:06:40.910Z,92.74
2018-11-29T05:07:40.779Z,93.13
2018-11-29T05:09:33.448Z,92.84
2018-11-29T05:10:33.333Z,93.18
2018-11-29T05:12:26.023Z,93.22
2018-11-29T05:13:25.894Z,93.65
2018-11-29T05:15:18.628Z,93.13
2018-11-29T05:16:18.469Z,93.08
2018-11-29T05:18:11.148Z,93.18
2018-11-29T05:19:11.041Z,93.84
2018-11-29T05:21:03.714Z,93.84
2018-11-29T05:22:03.573Z,93.65
2018-11-29T05:23:56.237Z,93.55
2018-11-29T05:24:56.129Z,93.18
2018-11-29T05:26:48.803Z,93.08
2018-11-29T05:27:48.680Z,93.08
2018-11-29T05:29:41.343Z,93.18
2018-11-29T05:30:41.234Z,93.08
2018-11-29T05:32:33.913Z,93.08
2018-11-29T05:33:33.786Z,93.37
2018-11-29T05:35:26.450Z,93.55
2018-11-29T05:36:26.340Z,93.08
2018-11-29T05:38:19.017Z,93.65
2018-11-29T05:39:18.887Z,93.55
2018-11-29T05:41:11.552Z,93.65
2018-11-29T05:42:11.445Z,93.74
2018-11-29T05:44:04.129Z,93.84
2018-11-29T05:45:03.996Z,93.55
2018-11-29T05:46:56.689Z,93.37
2018-11-29T05:47:56.557Z,93.27
2018-11-29T05:49:49.214Z,93.65
2018-11-29T05:50:49.109Z,93.37
2018-11-29T05:52:42.050Z,93.55
2018-11-29T05:53:41.656Z,93.46
2018-11-29T05:55:34.327Z,93.84
2018-11-29T05:56:34.208Z,93.84
2018-11-29T05:58:26.889Z,94.03
2018-11-29T05:59:26.764Z,93.65
2018-11-29T06:01:19.433Z,93.37
2018-11-29T06:02:19.325Z,93.74
2018-11-29T06:04:12.008Z,93.18
2018-11-29T06:05:11.877Z,93.55
2018-11-29T06:07:04.552Z,93.55
2018-11-29T06:08:04.436Z,93.55
2018-11-29T06:09:57.117Z,93.37
2018-11-29T06:10:56.990Z,93.55
2018-11-29T06:12:49.672Z,93.84
2018-11-29T06:13:49.545Z,93.84
2018-11-29T06:15:42.210Z,93.65
2018-11-29T06:16:42.157Z,93.27
2018-11-29T06:18:35.797Z,93.84
2018-11-29T06:19:35.645Z,93.37
2018-11-29T06:21:28.352Z,93.27
2018-11-29T06:22:28.242Z,93.84
2018-11-29T06:24:20.920Z,93.84
2018-11-29T06:25:20.773Z,93.37
2018-11-29T06:27:13.442Z,93.18
2018-11-29T06:28:13.334Z,93.84
2018-11-29T06:30:06.014Z,93.55
2018-11-29T06:31:05.887Z,93.65
2018-11-29T06:32:58.618Z,93.84
2018-11-29T06:33:58.497Z,93.27
2018-11-29T06:35:51.157Z,93.65
2018-11-29T06:36:51.049Z,93.65
2018-11-29T06:38:43.723Z,93.84
2018-11-29T06:39:43.600Z,93.37
2018-11-29T06:41:36.261Z,93.65
2018-11-29T06:42:36.149Z,93.55
2018-11-29T06:44:28.833Z,93.46
2018-11-29T06:45:28.701Z,94.03
2018-11-29T06:47:21.370Z,94.22
2018-11-29T06:48:21.252Z,94.42
2018-11-29T06:50:13.941Z,94.13
2018-11-29T06:51:13.809Z,94.22
2018-11-29T06:53:06.494Z,94.42
2018-11-29T06:54:06.361Z,94.32
2018-11-29T06:55:59.077Z,94.51
2018-11-29T06:56:59.006Z,94.79
2018-11-29T06:58:51.625Z,94.98
2018-11-29T06:59:51.486Z,95.08
2018-11-29T07:01:44.143Z,95.75
2018-11-29T07:02:44.076Z,95.08
2018-11-29T07:04:36.760Z,95.65
2018-11-29T07:05:36.705Z,95.17
2018-11-29T07:07:29.300Z,96.03
2018-11-29T07:08:29.182Z,95.84
2018-11-29T07:10:21.909Z,95.56
2018-11-29T07:11:21.747Z,95.75
2018-11-29T07:13:14.447Z,95.56
2018-11-29T07:14:14.293Z,95.46
2018-11-29T07:16:06.959Z,96.41
2018-11-29T07:17:06.866Z,96.22
2018-11-29T07:18:59.564Z,96.31
2018-11-29T07:19:59.460Z,96.03
2018-11-29T07:21:52.120Z,96.12
2018-11-29T07:22:52.041Z,96.03
2018-11-29T07:24:44.691Z,95.94
2018-11-29T07:25:44.607Z,96.03
2018-11-29T07:27:37.260Z,96.22
2018-11-29T07:28:37.145Z,95.94
2018-11-29T07:30:29.820Z,95.94
2018-11-29T07:31:29.695Z,96.12
2018-11-29T07:33:22.430Z,96.12
2018-11-29T07:34:22.278Z,96.22
2018-11-29T07:36:15.095Z,96.12
2018-11-29T07:37:17.414Z,96.12
2018-11-29T07:39:07.510Z,95.94
2018-11-29T07:40:07.447Z,96.03
2018-11-29T07:42:00.155Z,95.94
2018-11-29T07:42:59.981Z,96.22
2018-11-29T07:44:52.661Z,96.12
2018-11-29T07:45:52.534Z,96.12
2018-11-29T07:47:45.191Z,96.31
2018-11-29T07:48:45.091Z,95.94
2018-11-29T07:50:37.783Z,95.94
2018-11-29T07:51:37.639Z,96.31
2018-11-29T07:53:30.817Z,95.75
2018-11-29T07:54:30.704Z,95.46
2018-11-29T07:56:23.424Z,95.56
2018-11-29T07:57:23.294Z,95.46
2018-11-29T07:59:16.039Z,95.84
2018-11-29T08:00:15.883Z,95.08
2018-11-29T08:02:08.558Z,95.89
2018-11-29T08:03:08.460Z,95.98
2018-11-29T08:05:01.212Z,95.98
2018-11-29T08:06:01.060Z,95.84
2018-11-29T08:07:53.733Z,95.51
2018-11-29T08:08:53.613Z,95.79
2018-11-29T08:10:46.294Z,95.79
2018-11-29T08:11:46.163Z,95.79
2018-11-29T08:13:39.013Z,95.79
2018-11-29T08:14:38.714Z,95.79
2018-11-29T08:16:31.397Z,95.70
2018-11-29T08:17:31.270Z,95.70
2018-11-29T08:19:23.947Z,96.17
2018-11-29T08:20:23.821Z,95.89
2018-11-29T08:22:16.480Z,96.36
2018-11-29T08:23:16.373Z,96.36
2018-11-29T08:25:09.054Z,96.36
2018-11-29T08:26:08.922Z,95.98
2018-11-29T08:28:01.596Z,95.60
2018-11-29T08:29:01.480Z,95.89
2018-11-29T08:30:54.159Z,95.89
2018-11-29T08:31:54.028Z,95.51
2018-11-29T08:33:46.696Z,95.32
2018-11-29T08:34:46.583Z,95.51
2018-11-29T08:36:39.269Z,95.51
2018-11-29T08:37:39.137Z,95.51
2018-11-29T08:39:31.827Z,95.70
2018-11-29T08:40:31.688Z,95.22
2018-11-29T08:42:24.355Z,94.93
2018-11-29T08:43:24.260Z,94.84
2018-11-29T08:45:16.925Z,95.12
2018-11-29T08:46:16.795Z,94.84
2018-11-29T08:48:09.455Z,95.51
2018-11-29T08:49:09.344Z,95.12
2018-11-29T08:51:02.035Z,95.12
2018-11-29T08:52:01.906Z,94.84
2018-11-29T08:53:55.067Z,94.84
2018-11-29T08:54:54.955Z,94.56
2018-11-29T08:56:47.631Z,94.74
2018-11-29T08:57:47.509Z,94.65
2018-11-29T08:59:40.187Z,94.74
2018-11-29T09:00:40.058Z,94.56
2018-11-29T09:02:32.722Z,94.56
2018-11-29T09:03:32.613Z,94.37
2018-11-29T09:05:25.293Z,94.08
2018-11-29T09:06:25.183Z,94.74
2018-11-29T09:08:17.839Z,93.51
2018-11-29T09:09:17.725Z,93.51
2018-11-29T09:11:10.406Z,93.98
2018-11-29T09:12:10.284Z,93.98
2018-11-29T09:14:02.963Z,93.89
2018-11-29T09:15:02.841Z,93.89
2018-11-29T09:16:55.504Z,93.51
2018-11-29T09:17:55.395Z,93.89
2018-11-29T09:19:48.072Z,93.22
2018-11-29T09:20:47.942Z,92.98
2018-11-29T09:22:40.623Z,93.51
2018-11-29T09:23:40.498Z,93.22
2018-11-29T09:25:33.163Z,93.74
2018-11-29T09:26:33.055Z,93.17
2018-11-29T09:28:25.734Z,93.55
2018-11-29T09:29:25.607Z,93.55
2018-11-29T09:31:18.272Z,93.17
2018-11-29T09:32:18.164Z,93.08
2018-11-29T09:34:10.855Z,93.84
2018-11-29T09:35:10.723Z,92.98
2018-11-29T09:37:03.416Z,93.17
2018-11-29T09:38:03.285Z,93.27
2018-11-29T09:39:55.949Z,93.17
2018-11-29T09:40:55.842Z,92.98
2018-11-29T09:42:48.526Z,93.08
2018-11-29T09:43:48.402Z,93.08
2018-11-29T09:45:41.063Z,92.89
2018-11-29T09:46:40.957Z,92.41
2018-11-29T09:48:33.638Z,92.89
2018-11-29T09:49:33.508Z,92.50
2018-11-29T09:51:26.193Z,92.32
2018-11-29T09:52:26.064Z,92.41
2018-11-29T09:54:18.734Z,92.60
2018-11-29T09:55:18.626Z,91.94
2018-11-29T09:57:11.302Z,92.22
2018-11-29T09:58:11.175Z,92.03
2018-11-29T10:00:03.849Z,91.46
2018-11-29T10:01:03.745Z,92.03
2018-11-29T10:02:56.425Z,92.13
2018-11-29T10:03:56.298Z,92.13
2018-11-29T10:05:48.963Z,91.88
2018-11-29T10:06:48.854Z,91.98
2018-11-29T10:08:41.533Z,91.22
2018-11-29T10:09:41.413Z,91.17
2018-11-29T10:11:34.089Z,90.60
2018-11-29T10:12:33.967Z,91.03
2018-11-29T10:14:26.630Z,91.31
2018-11-29T10:15:26.524Z,90.84
2018-11-29T10:17:19.201Z,90.84
2018-11-29T10:18:19.076Z,90.84
2018-11-29T10:20:11.743Z,90.64
2018-11-29T10:21:11.626Z,90.74
2018-11-29T10:23:04.309Z,90.26
2018-11-29T10:24:04.192Z,91.03
2018-11-29T10:25:56.874Z,90.45
2018-11-29T10:26:56.748Z,90.36
2018-11-29T10:28:49.408Z,90.36
2018-11-29T10:29:49.301Z,90.45
2018-11-29T10:31:41.993Z,90.45
2018-11-29T10:32:41.869Z,90.17
2018-11-29T10:34:34.539Z,90.26
2018-11-29T10:35:34.427Z,90.36
2018-11-29T10:37:27.113Z,89.40
2018-11-29T10:38:26.994Z,89.98
2018-11-29T10:40:19.650Z,90.08
2018-11-29T10:41:19.539Z,89.98
2018-11-29T10:43:12.226Z,90.08
2018-11-29T10:44:12.097Z,89.98
2018-11-29T10:46:04.789Z,90.26
2018-11-29T10:47:04.660Z,90.36
2018-11-29T10:48:57.328Z,90.45
2018-11-29T10:49:57.216Z,89.98
2018-11-29T10:51:49.903Z,90.08
2018-11-29T10:52:49.778Z,89.98
2018-11-29T10:54:42.441Z,89.50
2018-11-29T10:55:42.333Z,89.40
2018-11-29T10:57:35.014Z,88.84
2018-11-29T10:58:34.887Z,88.93
2018-11-29T11:00:27.556Z,89.36
2018-11-29T11:01:27.447Z,89.79
2018-11-29T11:03:20.133Z,89.36
2018-11-29T11:04:20.017Z,89.07
2018-11-29T11:06:12.682Z,89.36
2018-11-29T11:07:12.572Z,88.88
2018-11-29T11:09:05.254Z,89.26
2018-11-29T11:10:05.129Z,88.78
2018-11-29T11:11:57.802Z,88.88
2018-11-29T11:12:57.689Z,88.69
2018-11-29T11:14:50.376Z,88.74
2018-11-29T11:15:50.245Z,88.64
2018-11-29T11:17:42.934Z,88.64
2018-11-29T11:18:42.813Z,88.45
2018-11-29T11:20:35.487Z,88.74
2018-11-29T11:21:35.375Z,89.36
2018-11-29T11:23:28.065Z,88.64
2018-11-29T11:24:27.939Z,88.93
2018-11-29T11:26:20.615Z,88.98
2018-11-29T11:27:20.500Z,88.93
2018-11-29T11:29:13.183Z,89.64
2018-11-29T11:30:13.059Z,89.12
2018-11-29T11:32:05.728Z,89.31
2018-11-29T11:33:05.620Z,89.40
2018-11-29T11:34:58.306Z,89.03
2018-11-29T11:35:58.175Z,89.26
2018-11-29T11:37:50.862Z,89.45
2018-11-29T11:38:50.734Z,89.17
2018-11-29T11:40:43.405Z,88.78
2018-11-29T11:41:43.291Z,88.78
2018-11-29T11:43:35.985Z,89.07
2018-11-29T11:44:35.860Z,88.02
2018-11-29T11:46:28.529Z,88.88
2018-11-29T11:47:28.419Z,88.12
2018-11-29T11:49:21.102Z,88.12
2018-11-29T11:50:20.980Z,88.21
2018-11-29T11:52:13.645Z,88.98
2018-11-29T11:53:13.535Z,88.88
2018-11-29T11:55:06.219Z,88.12
2018-11-29T11:56:06.093Z,88.40
2018-11-29T11:57:58.780Z,88.45
2018-11-29T11:58:58.656Z,88.26
2018-11-29T12:00:51.328Z,88.21
2018-11-29T12:01:51.224Z,88.21
2018-11-29T12:03:43.905Z,87.97
2018-11-29T12:04:43.776Z,88.45
2018-11-29T12:06:36.448Z,88.16
2018-11-29T12:07:36.339Z,88.26
2018-11-29T12:09:29.574Z,87.87
2018-11-29T12:10:29.400Z,88.16
2018-11-29T12:12:22.082Z,87.68
2018-11-29T12:13:21.971Z,87.87
2018-11-29T12:15:14.668Z,87.78
2018-11-29T12:16:14.538Z,87.97
2018-11-29T12:18:07.231Z,88.16
2018-11-29T12:19:07.101Z,88.64
2018-11-29T12:20:59.779Z,88.26
2018-11-29T12:21:59.665Z,88.16
2018-11-29T12:23:52.351Z,88.35
2018-11-29T12:24:52.229Z,88.45
2018-11-29T12:26:44.902Z,88.35
2018-11-29T12:27:44.789Z,88.64
2018-11-29T12:29:37.474Z,88.92
2018-11-29T12:30:37.349Z,88.92
2018-11-29T12:32:30.031Z,88.54
2018-11-29T12:33:29.920Z,89.02
2018-11-29T12:35:22.602Z,89.02
2018-11-29T12:36:22.482Z,89.21
2018-11-29T12:38:15.170Z,89.21
2018-11-29T12:39:15.043Z,89.74
2018-11-29T12:41:07.710Z,88.59
2018-11-29T12:42:07.599Z,88.98
2018-11-29T12:44:00.294Z,89.64
2018-11-29T12:45:00.163Z,89.36
2018-11-29T12:46:52.831Z,89.54
2018-11-29T12:47:52.720Z,89.07
2018-11-29T12:49:45.412Z,89.26
2018-11-29T12:50:45.288Z,89.74
2018-11-29T12:52:37.962Z,89.07
2018-11-29T12:53:37.852Z,89.36
2018-11-29T12:55:30.535Z,90.22
2018-11-29T12:56:30.412Z,90.12
2018-11-29T12:58:23.076Z,90.31
2018-11-29T12:59:22.971Z,90.22
2018-11-29T13:01:15.656Z,90.31
2018-11-29T13:02:15.533Z,89.83
2018-11-29T13:04:08.219Z,90.22
2018-11-29T13:05:08.088Z,91.07
2018-11-29T13:07:00.758Z,90.98
2018-11-29T13:08:00.692Z,90.79
2018-11-29T13:09:53.336Z,91.46
2018-11-29T13:10:53.210Z,90.79
2018-11-29T13:12:45.873Z,91.46
2018-11-29T13:13:45.767Z,91.41
2018-11-29T13:15:38.449Z,91.41
2018-11-29T13:16:38.323Z,91.41
2018-11-29T13:18:30.998Z,91.98
2018-11-29T13:19:30.885Z,91.88
2018-11-29T13:21:23.672Z,91.88
2018-11-29T13:22:23.512Z,91.98
2018-11-29T13:24:16.236Z,92.08
2018-11-29T13:25:16.101Z,92.17
2018-11-29T13:27:08.771Z,92.65
2018-11-29T13:28:08.660Z,92.27
2018-11-29T13:30:01.357Z,92.84
2018-11-29T13:31:01.214Z,92.93
2018-11-29T13:32:53.880Z,92.84
2018-11-29T13:33:53.774Z,92.46
2018-11-29T13:35:46.459Z,92.84
2018-11-29T13:36:46.334Z,93.03
2018-11-29T13:38:39.488Z,93.32
2018-11-29T13:39:39.376Z,93.03
2018-11-29T13:41:32.088Z,93.32
2018-11-29T13:42:31.928Z,92.65
2018-11-29T13:44:25.105Z,92.36
2018-11-29T13:45:24.978Z,93.41
2018-11-29T13:47:17.650Z,93.22
2018-11-29T13:48:17.540Z,93.22
2018-11-29T13:50:11.732Z,92.93
2018-11-29T13:51:10.593Z,93.41
2018-11-29T13:53:03.249Z,93.41
2018-11-29T13:54:03.134Z,93.12
2018-11-29T13:55:55.833Z,93.37
2018-11-29T13:56:55.699Z,93.17
2018-11-29T13:58:48.377Z,93.37
2018-11-29T13:59:48.268Z,93.98
2018-11-29T14:01:41.005Z,93.03
2018-11-29T14:02:40.861Z,93.22
2018-11-29T14:04:33.558Z,93.41
2018-11-29T14:05:33.433Z,93.03
2018-11-29T14:07:26.120Z,93.70
2018-11-29T14:08:26.013Z,93.22
2018-11-29T14:10:18.778Z,94.17
2018-11-29T14:11:18.588Z,93.79
2018-11-29T14:13:11.391Z,94.08
2018-11-29T14:14:11.198Z,93.60
2018-11-29T14:16:03.896Z,93.41
2018-11-29T14:17:03.770Z,93.51
2018-11-29T14:18:56.499Z,93.32
2018-11-29T14:19:56.453Z,93.41
2018-11-29T14:21:51.275Z,93.32
2018-11-29T14:22:48.989Z,94.08
2018-11-29T14:24:41.771Z,93.79
2018-11-29T14:25:41.561Z,93.98
2018-11-29T14:27:34.241Z,94.08
2018-11-29T14:28:34.120Z,93.70
2018-11-29T14:30:26.830Z,93.79
2018-11-29T14:31:26.725Z,94.27
2018-11-29T14:33:19.381Z,94.08
2018-11-29T14:34:19.261Z,93.88
2018-11-29T14:36:11.940Z,94.17
2018-11-29T14:37:11.817Z,94.46
2018-11-29T14:39:04.521Z,94.56
2018-11-29T14:40:04.401Z,94.37
2018-11-29T14:41:57.087Z,94.41
2018-11-29T14:42:56.959Z,93.93
2018-11-29T14:44:49.677Z,94.56
2018-11-29T14:45:49.512Z,94.37
2018-11-29T14:47:42.179Z,94.56
2018-11-29T14:48:42.104Z,94.41
2018-11-29T14:50:34.875Z,94.22
2018-11-29T14:51:34.764Z,93.74
2018-11-29T14:53:27.287Z,93.84
2018-11-29T14:54:27.180Z,94.13
2018-11-29T14:56:19.871Z,93.84
2018-11-29T14:57:19.800Z,93.84
2018-11-29T14:59:12.414Z,93.93
2018-11-29T15:00:12.297Z,94.22
2018-11-29T15:02:04.982Z,94.03
2018-11-29T15:03:04.876Z,93.55
2018-11-29T15:04:57.676Z,93.84
2018-11-29T15:05:57.415Z,93.84
2018-11-29T15:07:50.099Z,93.03
2018-11-29T15:08:49.982Z,93.55
2018-11-29T15:10:42.656Z,94.03
2018-11-29T15:11:42.525Z,93.93
2018-11-29T15:13:35.192Z,93.93
2018-11-29T15:14:35.086Z,93.74
2018-11-29T15:16:27.765Z,94.22
2018-11-29T15:17:27.642Z,94.03
2018-11-29T15:19:20.307Z,94.03
2018-11-29T15:20:20.192Z,93.37
2018-11-29T15:22:13.374Z,94.03
2018-11-29T15:23:13.237Z,93.93
2018-11-29T15:25:05.915Z,93.84
2018-11-29T15:26:05.802Z,93.55
2018-11-29T15:27:58.487Z,93.84
2018-11-29T15:28:58.365Z,93.37
2018-11-29T15:30:51.043Z,93.74
2018-11-29T15:31:50.919Z,93.27
2018-11-29T15:33:43.580Z,93.17
2018-11-29T15:34:43.473Z,93.55
2018-11-29T15:36:36.150Z,93.17
2018-11-29T15:37:36.026Z,93.46
2018-11-29T15:39:28.692Z,92.89
2018-11-29T15:40:28.586Z,93.08
2018-11-29T15:42:21.757Z,92.69
2018-11-29T15:43:21.625Z,92.69
2018-11-29T15:45:14.295Z,92.79
2018-11-29T15:46:14.185Z,92.89
2018-11-29T15:48:06.857Z,92.13
2018-11-29T15:49:06.739Z,92.13
2018-11-29T15:50:59.414Z,91.94
2018-11-29T15:51:59.305Z,91.84
2018-11-29T15:53:51.953Z,91.94
2018-11-29T15:54:51.840Z,92.41
2018-11-29T15:56:45.241Z,91.94
2018-11-29T15:57:44.400Z,92.22
2018-11-29T15:59:37.069Z,91.94
2018-11-29T16:00:36.950Z,91.94
2018-11-29T16:02:29.632Z,91.74
2018-11-29T16:03:29.519Z,91.74
2018-11-29T16:05:22.172Z,91.84
2018-11-29T16:06:22.060Z,92.03
2018-11-29T16:08:14.741Z,91.27
2018-11-29T16:09:14.621Z,91.27
2018-11-29T16:11:07.286Z,91.17
2018-11-29T16:12:07.174Z,91.55
2018-11-29T16:13:59.884Z,91.17
2018-11-29T16:14:59.732Z,90.70
2018-11-29T16:16:52.505Z,90.70
2018-11-29T16:17:52.282Z,90.79
2018-11-29T16:19:45.118Z,90.74
2018-11-29T16:20:44.841Z,90.50
2018-11-29T16:22:37.519Z,90.98
2018-11-29T16:23:37.393Z,90.70
2018-11-29T16:25:30.070Z,90.22
2018-11-29T16:26:29.945Z,90.70
2018-11-29T16:28:22.625Z,90.50
2018-11-29T16:29:22.493Z,89.84
2018-11-29T16:31:15.168Z,90.31
2018-11-29T16:32:15.053Z,89.94
2018-11-29T16:34:07.743Z,90.50
2018-11-29T16:35:07.612Z,89.65
2018-11-29T16:37:00.296Z,89.36
2018-11-29T16:38:00.171Z,89.46
2018-11-29T16:39:52.877Z,89.55
2018-11-29T16:40:52.726Z,89.94
2018-11-29T16:42:45.406Z,90.22
2018-11-29T16:43:45.274Z,89.94
2018-11-29T16:45:37.943Z,89.75
2018-11-29T16:46:37.832Z,90.22
2018-11-29T16:48:30.507Z,89.65
2018-11-29T16:49:30.383Z,89.75
2018-11-29T16:51:23.051Z,89.26
2018-11-29T16:52:22.941Z,89.84
2018-11-29T16:54:15.620Z,89.07
2018-11-29T16:55:15.490Z,89.65
2018-11-29T16:57:08.254Z,89.75
2018-11-29T16:58:08.124Z,89.46
2018-11-29T17:00:00.798Z,89.55
2018-11-29T17:01:00.677Z,89.46
2018-11-29T17:02:53.365Z,89.26
2018-11-29T17:03:53.246Z,89.75
2018-11-29T17:05:46.399Z,89.75
2018-11-29T17:06:46.287Z,89.65
2018-11-29T17:08:38.966Z,89.36
2018-11-29T17:09:38.836Z,89.36
2018-11-29T17:11:31.501Z,89.36
2018-11-29T17:12:31.390Z,89.46
2018-11-29T17:14:24.568Z,89.46
2018-11-29T17:15:24.446Z,89.55
2018-11-29T17:17:17.126Z,88.70
2018-11-29T17:18:16.995Z,88.60
2018-11-29T17:20:09.663Z,87.84
2018-11-29T17:21:09.550Z,88.51
2018-11-29T17:23:02.720Z,87.55
2018-11-29T17:24:02.597Z,88.03
2018-11-29T17:25:55.260Z,88.22
2018-11-29T17:26:55.144Z,87.84
2018-11-29T17:28:48.050Z,88.41
2018-11-29T17:29:47.783Z,88.31
2018-11-29T17:31:40.390Z,88.03
2018-11-29T17:32:40.278Z,88.12
2018-11-29T17:34:32.956Z,87.74
2018-11-29T17:35:32.837Z,87.17
2018-11-29T17:37:25.512Z,87.07
2018-11-29T17:38:25.389Z,86.98
2018-11-29T17:40:18.074Z,85.74
2018-11-29T17:41:17.944Z,85.93
2018-11-29T17:43:10.628Z,85.08
2018-11-29T17:44:10.502Z,85.64
2018-11-29T17:46:03.162Z,84.88
2018-11-29T17:47:03.046Z,84.26
2018-11-29T17:48:55.747Z,83.74
2018-11-29T17:49:55.624Z,83.65
2018-11-29T17:51:53.625Z,83.74
2018-11-29T17:52:48.192Z,84.26
2018-11-29T17:54:40.872Z,83.74
2018-11-29T17:55:40.739Z,83.40
2018-11-29T17:57:33.415Z,83.45
2018-11-29T17:58:33.304Z,82.92
2018-11-29T18:00:25.983Z,83.36
2018-11-29T18:01:25.853Z,83.88
2018-11-29T18:03:18.532Z,83.36
2018-11-29T18:04:18.408Z,83.55
2018-11-29T18:06:11.066Z,82.98
2018-11-29T18:07:10.998Z,82.41
2018-11-29T18:09:03.639Z,81.84
2018-11-29T18:10:03.510Z,82.21
2018-11-29T18:11:56.178Z,82.54
2018-11-29T18:12:56.170Z,82.21
2018-11-29T18:14:48.747Z,82.07
2018-11-29T18:15:48.620Z,81.49
2018-11-29T18:17:41.287Z,81.40
2018-11-29T18:18:41.186Z,80.92
2018-11-29T18:20:33.870Z,80.44
2018-11-29T18:21:33.738Z,80.64
2018-11-29T18:23:26.425Z,81.40
2018-11-29T18:24:26.296Z,80.35
2018-11-29T18:26:18.963Z,80.54
2018-11-29T18:27:18.856Z,81.12
2018-11-29T18:29:11.537Z,80.73
2018-11-29T18:30:11.414Z,81.12
2018-11-29T18:32:04.094Z,81.30
2018-11-29T18:33:03.971Z,80.83
2018-11-29T18:34:56.655Z,80.64
2018-11-29T18:35:56.527Z,81.12
2018-11-29T18:37:50.139Z,80.73
2018-11-29T18:38:49.081Z,80.44
2018-11-29T18:40:41.764Z,81.02
2018-11-29T18:41:41.640Z,81.78
2018-11-29T18:43:34.311Z,81.07
2018-11-29T18:44:34.196Z,81.02
2018-11-29T18:46:26.882Z,81.17
2018-11-29T18:47:26.749Z,81.55
2018-11-29T18:49:19.432Z,81.74
2018-11-29T18:50:19.302Z,81.07
2018-11-29T18:52:11.968Z,81.17
2018-11-29T18:53:11.860Z,81.46
2018-11-29T18:55:04.541Z,81.65
2018-11-29T18:56:04.411Z,81.46
2018-11-29T18:57:57.080Z,81.46
2018-11-29T18:58:56.964Z,82.41
2018-11-29T19:00:49.655Z,82.12
2018-11-29T19:01:49.521Z,83.26
2018-11-29T19:03:42.189Z,82.89
2018-11-29T19:04:42.086Z,82.69
2018-11-29T19:06:34.767Z,82.21
2018-11-29T19:07:34.635Z,82.69
2018-11-29T19:09:27.317Z,82.98
2018-11-29T19:10:27.191Z,82.89
2018-11-29T19:12:19.855Z,83.03
2018-11-29T19:13:19.743Z,83.45
2018-11-29T19:15:12.422Z,82.56
2018-11-29T19:16:12.291Z,83.13
2018-11-29T19:18:10.288Z,83.41
2018-11-29T19:19:04.846Z,84.41
2018-11-29T19:20:58.029Z,83.55
2018-11-29T19:21:57.896Z,83.36
2018-11-29T19:23:50.563Z,83.03
2018-11-29T19:24:50.455Z,83.41
2018-11-29T19:26:43.136Z,83.61
2018-11-29T19:27:43.005Z,83.70
2018-11-29T19:29:35.786Z,83.51
2018-11-29T19:30:35.579Z,83.32
2018-11-29T19:32:28.281Z,83.22
2018-11-29T19:33:28.133Z,83.41
2018-11-29T19:35:20.811Z,83.70
2018-11-29T19:36:20.685Z,83.80
2018-11-29T19:38:13.352Z,83.61
2018-11-29T19:39:13.241Z,83.80
2018-11-29T19:41:05.935Z,84.27
2018-11-29T19:42:05.802Z,84.17
2018-11-29T19:43:58.684Z,84.08
2018-11-29T19:44:58.407Z,83.80
2018-11-29T19:46:51.089Z,83.61
2018-11-29T19:47:50.952Z,83.70
2018-11-29T19:49:43.638Z,83.70
2018-11-29T19:50:43.515Z,83.32
2018-11-29T19:52:36.179Z,83.41
2018-11-29T19:53:36.065Z,83.80
2018-11-29T19:55:28.752Z,83.07
2018-11-29T19:56:28.619Z,83.07
2018-11-29T19:58:21.305Z,83.36
2018-11-29T19:59:21.268Z,83.55
2018-11-29T20:01:14.185Z,83.07
2018-11-29T20:02:13.765Z,83.26
2018-11-29T20:04:06.489Z,83.26
2018-11-29T20:05:06.328Z,83.36
2018-11-29T20:06:59.038Z,83.65
2018-11-29T20:07:58.902Z,83.17
2018-11-29T20:09:51.584Z,83.45
2018-11-29T20:10:51.463Z,83.17
2018-11-29T20:12:44.131Z,82.89
2018-11-29T20:13:44.017Z,82.89
2018-11-29T20:15:36.700Z,83.45
2018-11-29T20:16:36.574Z,83.55
2018-11-29T20:18:29.741Z,83.55
2018-11-29T20:19:29.628Z,83.36
2018-11-29T20:21:22.315Z,83.55
2018-11-29T20:22:22.183Z,83.26
2018-11-29T20:24:15.343Z,83.55
2018-11-29T20:25:15.232Z,83.45
2018-11-29T20:27:07.917Z,83.36
2018-11-29T20:28:07.786Z,83.65
2018-11-29T20:30:00.453Z,83.36
2018-11-29T20:31:00.345Z,83.84
2018-11-29T20:32:53.513Z,82.98
2018-11-29T20:33:53.385Z,83.36
2018-11-29T20:35:46.063Z,83.26
2018-11-29T20:36:45.936Z,83.36
2018-11-29T20:38:38.601Z,84.03
2018-11-29T20:39:38.489Z,84.22
2018-11-29T20:41:31.270Z,84.50
2018-11-29T20:42:31.071Z,84.31
2018-11-29T20:44:24.239Z,83.84
2018-11-29T20:45:23.817Z,83.74
2018-11-29T20:47:16.443Z,83.93
2018-11-29T20:48:16.311Z,83.93
2018-11-29T20:50:08.975Z,83.84
2018-11-29T20:51:08.865Z,83.74
2018-11-29T20:53:02.048Z,83.45
2018-11-29T20:54:01.925Z,83.36
2018-11-29T20:55:54.605Z,83.65
2018-11-29T20:56:55.288Z,84.12
2018-11-29T20:58:47.270Z,83.93
2018-11-29T20:59:47.142Z,84.12
2018-11-29T21:01:39.827Z,83.65
2018-11-29T21:02:39.613Z,84.31
2018-11-29T21:04:32.279Z,84.31
2018-11-29T21:05:32.174Z,84.79
2018-11-29T21:07:24.855Z,84.69
2018-11-29T21:08:24.724Z,84.41
2018-11-29T21:10:17.393Z,85.27
2018-11-29T21:11:17.273Z,84.79
2018-11-29T21:13:09.963Z,85.08
2018-11-29T21:14:09.828Z,84.65
2018-11-29T21:16:02.514Z,84.88
2018-11-29T21:17:02.493Z,85.22
2018-11-29T21:18:55.069Z,85.27
2018-11-29T21:19:54.962Z,84.94
2018-11-29T21:21:47.646Z,85.70
2018-11-29T21:22:47.513Z,85.60
2018-11-29T21:24:40.184Z,85.51
2018-11-29T21:25:40.068Z,85.41
2018-11-29T21:27:33.242Z,85.22
2018-11-29T21:28:33.118Z,84.36
2018-11-29T21:30:25.787Z,85.13
2018-11-29T21:31:25.673Z,85.51
2018-11-29T21:33:18.841Z,85.51
2018-11-29T21:34:18.726Z,85.41
2018-11-29T21:36:11.404Z,85.13
2018-11-29T21:37:11.377Z,85.03
2018-11-29T21:39:03.944Z,85.03
2018-11-29T21:40:03.891Z,84.94
2018-11-29T21:41:56.527Z,85.22
2018-11-29T21:42:56.415Z,85.89
2018-11-29T21:44:49.063Z,86.08
2018-11-29T21:45:48.950Z,85.70
2018-11-29T21:47:41.639Z,86.08
2018-11-29T21:48:41.514Z,85.80
2018-11-29T21:50:34.177Z,86.18
2018-11-29T21:51:34.072Z,86.08
2018-11-29T21:53:26.749Z,85.80
2018-11-29T21:54:26.625Z,85.89
2018-11-29T21:56:19.466Z,86.08
2018-11-29T21:57:19.177Z,85.80
2018-11-29T21:59:11.839Z,85.99
2018-11-29T22:00:11.756Z,86.27
2018-11-29T22:02:04.415Z,86.18
2018-11-29T22:03:04.282Z,85.80
2018-11-29T22:04:56.954Z,86.08
2018-11-29T22:05:56.838Z,86.55
2018-11-29T22:07:49.817Z,85.89
2018-11-29T22:08:49.397Z,86.55
2018-11-29T22:10:42.066Z,86.75
2018-11-29T22:11:41.952Z,86.65
2018-11-29T22:13:34.629Z,86.55
2018-11-29T22:14:34.506Z,86.75
2018-11-29T22:16:27.183Z,86.65
2018-11-29T22:17:27.074Z,86.55
2018-11-29T22:19:19.757Z,86.55
2018-11-29T22:20:19.689Z,86.65
2018-11-29T22:22:12.305Z,86.75
2018-11-29T22:23:12.186Z,86.75
2018-11-29T22:25:04.852Z,86.08
2018-11-29T22:26:04.732Z,86.18
2018-11-29T22:27:57.413Z,86.36
2018-11-29T22:29:00.694Z,85.80
2018-11-29T22:30:49.958Z,85.99
2018-11-29T22:31:49.845Z,86.27
2018-11-29T22:33:42.527Z,85.60
2018-11-29T22:34:42.405Z,86.65
2018-11-29T22:36:35.070Z,86.36
2018-11-29T22:37:34.953Z,85.60
2018-11-29T22:39:28.141Z,86.27
2018-11-29T22:40:28.012Z,86.27
2018-11-29T22:42:20.724Z,86.18
2018-11-29T22:43:20.592Z,85.89
2018-11-29T22:45:13.260Z,85.99
2018-11-29T22:46:13.139Z,85.89
2018-11-29T22:48:05.827Z,86.75
2018-11-29T22:49:05.696Z,86.55
2018-11-29T22:50:58.362Z,86.18
2018-11-29T22:51:58.260Z,86.08
2018-11-29T22:53:50.931Z,85.80
2018-11-29T22:54:50.804Z,85.80
2018-11-29T22:56:43.467Z,85.99
2018-11-29T22:57:43.358Z,86.08
2018-11-29T22:59:36.043Z,85.80
